Hauptseite
METAR-TAF:

METAR-TAF

Flughäfen :

Laupheim, Deutschland

Flugplatz Laupheim

Breite: 48-13N, Länge: 009-55E, Höhe: 538 m

Beobachtung

Neuester Wetterbericht von vor 1 Stunde und 8 Minuten, um 01:20 UTC
Wind 6 kt aus West/Südwest
Temperatur 6°C
Luftfeuchtigkeit 87%
Luftdruck 1019 hPa
Sichtweite 10 km oder mehr
Durchbrochene Bewölkung in der Höhe von 2300 ft

METAR: ETHL 230120Z 24006KT 9999 BKN023 06/04 Q1019 WHT

Zeit: 04:28 (02:28 UTC)


TAF: fehlend

Wetterbeobachtungen und Prognosen von mehr als 4000 Flughäfen (METAR und TAF Bericht).

Die verfügbaren Stationen werden durch gelbe und rote Markierungen auf der Karte dargestellt.

Führen Sie die Maus auf sie, um den Namen der Station zu sehen.

Darauf klicken, um die Beobachtung von Wetterbeobachtungen und Prognosen zu sehen.

Um die Karte zu ändern : klicken Sie auf den grünen Tasten mit einem schwarzen Kreuz Zum Vergrößern, auf den grünen Button mit einem Gedankenstrich zu verkleinern, oder auf die grünen Pfeile für benachbarte Karten.


METAR-TAF: